Time;durP1;ratioP1;P1;durP2;ratioP2;P2;SDS_P1;SDS_P2;PMS_P1;PMS_P2;Temp;Humidity;BMP_temperature;BMP_pressure;BME280_temperature;BME280_humidity;BME280_pressure;Samples;Min_cycle;Max_cycle;Signal;HPM_P1;HPM_P2
2022/01/04 00:01:59;;;;;;;5.43;3.80;;;7.30;99.90;;;;;;5033820;28;20223;-75
2022/01/04 00:04:25;;;;;;;4.80;4.15;;;7.20;99.90;;;;;;5024884;28;20173;-75
2022/01/04 00:06:50;;;;;;;9.25;5.60;;;7.20;99.90;;;;;;5027535;28;20539;-75
2022/01/04 00:09:16;;;;;;;6.57;5.20;;;7.20;99.90;;;;;;5028473;28;20187;-75
2022/01/04 00:14:07;;;;;;;6.60;4.40;;;7.10;99.90;;;;;;5028183;28;20648;-75
2022/01/04 00:16:33;;;;;;;6.22;4.88;;;7.00;99.90;;;;;;5029583;28;20180;-75
2022/01/04 00:18:59;;;;;;;7.38;4.60;;;7.00;99.90;;;;;;5031861;28;20185;-75
2022/01/04 00:21:24;;;;;;;5.93;4.25;;;6.90;99.90;;;;;;5026017;28;20212;-75
2022/01/04 00:23:50;;;;;;;5.85;5.00;;;6.90;99.90;;;;;;5032635;28;20522;-75
2022/01/04 00:26:15;;;;;;;7.55;4.70;;;6.90;99.90;;;;;;5030598;28;20196;-76
2022/01/04 00:28:41;;;;;;;8.75;5.07;;;6.90;99.90;;;;;;5032257;28;20264;-76
2022/01/04 00:31:07;;;;;;;6.32;5.10;;;6.90;99.90;;;;;;5032038;28;20208;-75
2022/01/04 00:33:32;;;;;;;9.18;5.30;;;6.90;99.90;;;;;;5035045;28;20180;-75
2022/01/04 00:35:58;;;;;;;6.65;4.85;;;6.80;99.90;;;;;;5033332;28;20188;-76
2022/01/04 00:38:24;;;;;;;8.20;4.95;;;6.80;99.90;;;;;;5028486;28;20238;-76
2022/01/04 00:40:49;;;;;;;5.85;5.25;;;6.80;99.90;;;;;;5033860;28;20223;-75
2022/01/04 00:43:15;;;;;;;6.53;5.30;;;6.90;99.90;;;;;;5033771;28;20189;-75
2022/01/04 00:45:41;;;;;;;10.05;7.78;;;6.90;99.90;;;;;;5034859;28;20176;-75
2022/01/04 00:50:35;;;;;;;11.75;6.35;;;6.90;99.90;;;;;;5038036;28;20268;-75
2022/01/04 00:53:02;;;;;;;8.65;6.20;;;6.90;99.90;;;;;;5031623;28;21675;-75
2022/01/04 00:55:28;;;;;;;9.88;5.80;;;7.00;99.90;;;;;;5029191;28;20185;-75
2022/01/04 00:57:55;;;;;;;9.73;5.97;;;7.00;99.90;;;;;;5034570;28;20188;-76
2022/01/04 01:00:20;;;;;;;7.43;5.35;;;7.00;99.90;;;;;;5031255;28;20200;-75
2022/01/04 01:02:47;;;;;;;5.28;4.88;;;6.90;99.90;;;;;;5032950;28;20200;-75
2022/01/04 01:05:14;;;;;;;7.70;5.57;;;6.80;99.90;;;;;;5031023;28;20180;-76
2022/01/04 01:07:40;;;;;;;8.25;5.60;;;6.70;99.90;;;;;;5032588;28;20180;-76
2022/01/04 01:10:40;;;;;;;7.30;5.22;;;6.70;99.90;;;;;;5034355;28;20223;-76
2022/01/04 01:13:06;;;;;;;6.05;5.00;;;6.70;99.90;;;;;;5031830;28;20177;-76
2022/01/04 01:15:32;;;;;;;7.72;5.30;;;6.70;99.90;;;;;;5030764;28;20188;-76
2022/01/04 01:17:57;;;;;;;5.75;5.22;;;6.70;99.90;;;;;;5032885;28;20191;-76
2022/01/04 01:20:23;;;;;;;6.82;5.43;;;6.80;99.90;;;;;;5031914;28;20263;-76
2022/01/04 01:22:49;;;;;;;7.65;5.60;;;6.80;99.90;;;;;;5033072;28;20181;-76
2022/01/04 01:25:16;;;;;;;8.20;5.50;;;6.80;99.90;;;;;;5034148;28;20251;-76
2022/01/04 01:27:42;;;;;;;5.43;4.93;;;6.80;99.90;;;;;;5033492;28;20179;-76
2022/01/04 01:30:09;;;;;;;7.70;5.45;;;6.70;99.90;;;;;;5034858;28;20614;-76
2022/01/04 01:32:34;;;;;;;6.13;4.75;;;6.70;99.90;;;;;;5032621;28;20255;-76
2022/01/04 01:35:00;;;;;;;7.85;5.57;;;6.70;99.90;;;;;;5031878;28;20188;-76
2022/01/04 01:37:27;;;;;;;7.18;5.45;;;6.80;99.90;;;;;;5033040;28;20185;-75
2022/01/04 01:39:53;;;;;;;7.53;5.53;;;6.80;99.90;;;;;;5030917;28;20172;-76
2022/01/04 01:42:19;;;;;;;7.13;5.93;;;6.70;99.90;;;;;;5031578;28;20277;-76
2022/01/04 01:44:44;;;;;;;7.70;5.30;;;6.70;99.90;;;;;;5031164;28;20239;-76
2022/01/04 01:47:10;;;;;;;10.50;6.57;;;6.70;99.90;;;;;;5029984;28;20208;-76
2022/01/04 01:49:36;;;;;;;12.38;6.95;;;6.70;99.90;;;;;;5034248;28;20183;-76
2022/01/04 01:52:02;;;;;;;11.18;7.55;;;6.80;99.90;;;;;;5034816;28;20200;-76
2022/01/04 01:54:27;;;;;;;10.43;6.38;;;6.80;99.90;;;;;;5031998;28;20670;-76
2022/01/04 01:56:54;;;;;;;12.23;5.95;;;6.80;99.90;;;;;;5030647;28;20193;-76
2022/01/04 01:59:19;;;;;;;11.35;7.75;;;6.70;99.90;;;;;;5033927;28;20192;-76
2022/01/04 02:01:45;;;;;;;8.07;6.28;;;6.70;99.90;;;;;;5028169;28;20207;-76
2022/01/04 02:04:12;;;;;;;9.13;6.35;;;6.70;99.90;;;;;;5027185;28;20182;-76
2022/01/04 02:06:38;;;;;;;7.20;5.35;;;6.70;99.90;;;;;;5031107;28;20212;-76
2022/01/04 02:09:04;;;;;;;5.03;4.30;;;6.80;99.90;;;;;;5032003;28;20241;-77
2022/01/04 02:11:31;;;;;;;5.10;4.38;;;6.80;99.90;;;;;;5031777;28;20205;-76
2022/01/04 02:13:58;;;;;;;5.13;4.68;;;6.90;99.90;;;;;;5030309;28;20235;-76
2022/01/04 02:16:28;;;;;;;6.20;4.88;;;6.90;99.90;;;;;;5035138;28;20181;-76
2022/01/04 02:19:05;;;;;;;4.47;4.05;;;6.80;99.90;;;;;;5031254;28;20560;-76
2022/01/04 02:21:33;;;;;;;5.25;3.80;;;6.80;99.90;;;;;;5029621;28;20211;-76
2022/01/04 02:23:59;;;;;;;6.00;4.32;;;6.80;99.90;;;;;;5032462;28;20319;-77
2022/01/04 02:26:24;;;;;;;4.60;4.15;;;6.70;99.90;;;;;;5034628;28;20176;-76
2022/01/04 02:28:51;;;;;;;5.25;4.18;;;6.80;99.90;;;;;;5031611;28;20184;-76
2022/01/04 02:31:17;;;;;;;4.90;4.47;;;6.80;99.90;;;;;;5031680;28;20751;-76
2022/01/04 02:33:42;;;;;;;5.10;4.32;;;6.80;99.90;;;;;;5026935;28;20276;-76
2022/01/04 02:36:08;;;;;;;5.22;3.72;;;6.80;99.90;;;;;;5033653;28;20701;-76
2022/01/04 02:38:34;;;;;;;3.80;3.50;;;6.80;99.90;;;;;;5026013;28;20714;-76
2022/01/04 02:41:01;;;;;;;5.97;4.78;;;6.80;99.90;;;;;;5030291;28;20787;-76
2022/01/04 02:43:26;;;;;;;5.22;3.58;;;6.80;99.90;;;;;;5029274;28;20177;-76
2022/01/04 02:45:52;;;;;;;6.97;3.70;;;6.90;99.90;;;;;;5033664;28;20632;-76
2022/01/04 02:48:18;;;;;;;5.22;3.63;;;6.90;99.90;;;;;;5030453;28;20531;-76
2022/01/04 02:50:43;;;;;;;4.50;4.05;;;6.90;99.90;;;;;;5033550;28;20196;-76
2022/01/04 02:53:09;;;;;;;7.05;4.03;;;6.90;99.90;;;;;;5034882;28;20283;-76
2022/01/04 02:55:35;;;;;;;3.88;3.58;;;6.90;99.90;;;;;;5031634;28;20184;-76
2022/01/04 02:58:00;;;;;;;6.07;4.30;;;7.00;99.90;;;;;;5031160;28;20333;-76
2022/01/04 03:00:26;;;;;;;8.32;4.72;;;7.00;99.90;;;;;;5026481;28;20299;-76
2022/01/04 03:02:52;;;;;;;4.07;3.67;;;7.00;99.90;;;;;;5045339;28;20557;-76
2022/01/04 03:05:18;;;;;;;5.40;3.45;;;7.00;99.90;;;;;;5027368;28;20184;-76
2022/01/04 03:07:44;;;;;;;6.18;4.35;;;7.00;99.90;;;;;;5030419;28;20307;-76
2022/01/04 03:10:10;;;;;;;5.75;4.30;;;7.00;99.90;;;;;;5033080;28;20184;-76
2022/01/04 03:12:39;;;;;;;3.85;3.45;;;7.00;99.90;;;;;;5031729;28;20200;-75
2022/01/04 03:15:05;;;;;;;6.57;3.42;;;7.00;99.90;;;;;;5025397;28;20176;-75
2022/01/04 03:17:31;;;;;;;6.40;3.92;;;6.90;99.90;;;;;;5028082;28;20193;-76
2022/01/04 03:19:57;;;;;;;3.92;3.55;;;7.00;99.90;;;;;;5032929;28;20188;-76
2022/01/04 03:22:22;;;;;;;8.15;4.80;;;6.90;99.90;;;;;;5031722;28;20266;-76
2022/01/04 03:24:48;;;;;;;6.43;3.60;;;6.80;99.90;;;;;;5028849;28;20211;-75
2022/01/04 03:27:13;;;;;;;4.97;4.00;;;6.80;99.90;;;;;;5031944;28;20186;-76
2022/01/04 03:29:39;;;;;;;5.95;3.67;;;6.80;99.90;;;;;;5031968;28;20545;-76
2022/01/04 03:32:05;;;;;;;4.35;4.00;;;6.80;99.90;;;;;;5029398;28;20290;-76
2022/01/04 03:34:31;;;;;;;4.65;4.13;;;6.80;99.90;;;;;;5027627;28;20271;-75
2022/01/04 03:36:56;;;;;;;3.88;3.30;;;6.80;99.90;;;;;;5026762;28;20188;-76
2022/01/04 03:39:22;;;;;;;5.80;3.88;;;6.90;99.90;;;;;;5032262;28;20226;-77
2022/01/04 03:41:50;;;;;;;5.53;4.10;;;6.90;99.90;;;;;;5027017;28;20702;-77
2022/01/04 03:44:19;;;;;;;6.45;3.78;;;7.00;99.90;;;;;;5030972;28;20180;-77
2022/01/04 03:46:50;;;;;;;5.25;3.92;;;7.00;99.90;;;;;;5020681;28;20644;-77
2022/01/04 03:49:16;;;;;;;3.80;3.47;;;6.90;99.90;;;;;;5027536;28;20184;-77
2022/01/04 03:51:42;;;;;;;4.70;3.33;;;6.90;99.90;;;;;;5032207;28;20207;-77
2022/01/04 03:54:08;;;;;;;3.75;2.88;;;7.00;99.90;;;;;;5029083;28;20660;-77
2022/01/04 03:56:33;;;;;;;5.88;3.83;;;7.00;99.90;;;;;;5027980;28;20664;-77
2022/01/04 03:58:59;;;;;;;4.97;3.55;;;7.00;99.90;;;;;;5024792;28;20562;-78
2022/01/04 04:01:25;;;;;;;4.20;2.90;;;7.00;99.90;;;;;;5031495;28;20217;-78
2022/01/04 04:03:51;;;;;;;4.32;3.25;;;7.10;99.90;;;;;;5020286;28;20181;-77
2022/01/04 04:06:16;;;;;;;5.00;2.90;;;7.10;99.90;;;;;;5024495;28;20177;-76
2022/01/04 04:08:42;;;;;;;5.72;3.22;;;7.00;99.90;;;;;;5028487;28;20725;-76
2022/01/04 04:11:08;;;;;;;3.58;3.22;;;7.10;99.90;;;;;;5031335;28;20214;-76
2022/01/04 04:13:34;;;;;;;3.17;2.78;;;7.10;99.90;;;;;;5027233;28;20213;-76
2022/01/04 04:15:59;;;;;;;3.35;2.88;;;7.00;99.90;;;;;;5030989;28;20212;-76
2022/01/04 04:18:25;;;;;;;3.65;3.20;;;7.10;99.90;;;;;;5025006;28;20177;-76
2022/01/04 04:20:51;;;;;;;5.88;4.07;;;7.10;99.90;;;;;;5032159;28;20773;-76
2022/01/04 04:23:16;;;;;;;6.82;4.18;;;7.10;99.90;;;;;;5029780;28;20183;-76
2022/01/04 04:25:42;;;;;;;7.03;5.20;;;7.10;99.90;;;;;;5030571;28;20573;-76
2022/01/04 04:28:08;;;;;;;6.20;4.82;;;7.10;99.90;;;;;;5032327;28;20229;-76
2022/01/04 04:30:34;;;;;;;6.80;4.32;;;7.00;99.90;;;;;;5023547;28;20234;-77
2022/01/04 04:33:00;;;;;;;7.10;5.00;;;6.90;99.90;;;;;;5030415;28;20189;-76
2022/01/04 04:35:26;;;;;;;7.03;4.20;;;6.90;99.90;;;;;;5031379;28;20185;-76
2022/01/04 04:37:51;;;;;;;5.30;4.00;;;6.90;99.90;;;;;;5030939;28;20177;-76
2022/01/04 04:40:17;;;;;;;6.25;4.60;;;6.90;99.90;;;;;;5029092;28;20216;-76
2022/01/04 04:42:43;;;;;;;5.68;4.30;;;6.80;99.90;;;;;;5030171;28;20242;-76
2022/01/04 04:45:09;;;;;;;5.95;5.07;;;6.80;99.90;;;;;;5026995;28;20189;-76
2022/01/04 04:47:36;;;;;;;4.93;4.43;;;6.80;99.90;;;;;;5029957;28;20252;-76
2022/01/04 04:50:03;;;;;;;5.22;4.38;;;6.80;99.90;;;;;;5036075;28;20190;-76
2022/01/04 04:52:29;;;;;;;5.15;4.68;;;6.80;99.90;;;;;;5031154;28;20603;-76
2022/01/04 04:54:54;;;;;;;5.50;4.70;;;6.80;99.90;;;;;;5031865;28;20188;-76
2022/01/04 04:57:20;;;;;;;5.68;4.50;;;6.80;99.90;;;;;;5030871;28;20196;-76
2022/01/04 04:59:46;;;;;;;6.05;5.30;;;6.80;99.90;;;;;;5013676;28;20255;-77
2022/01/04 05:02:11;;;;;;;4.82;4.43;;;6.80;99.90;;;;;;5025421;28;20251;-76
2022/01/04 05:04:38;;;;;;;6.65;5.50;;;6.90;99.90;;;;;;5028923;28;20218;-76
2022/01/04 05:07:04;;;;;;;5.80;5.07;;;6.80;99.90;;;;;;5027462;28;20188;-76
2022/01/04 05:09:30;;;;;;;6.85;4.88;;;6.80;99.90;;;;;;5024330;28;20181;-77
2022/01/04 05:11:55;;;;;;;5.65;5.15;;;6.80;99.90;;;;;;5028703;28;20207;-76
2022/01/04 05:14:21;;;;;;;5.78;4.93;;;6.80;99.90;;;;;;5029433;28;20200;-76
2022/01/04 05:16:48;;;;;;;8.02;4.35;;;6.90;99.90;;;;;;5032721;28;20185;-76
2022/01/04 05:19:14;;;;;;;5.75;4.10;;;6.90;99.90;;;;;;5026722;28;20271;-76
2022/01/04 05:21:40;;;;;;;5.15;4.68;;;7.00;99.90;;;;;;5031755;28;20222;-76
2022/01/04 05:24:05;;;;;;;4.88;4.38;;;7.00;99.90;;;;;;5031325;28;20631;-76
2022/01/04 05:26:33;;;;;;;5.32;4.60;;;7.00;99.90;;;;;;5033079;28;20223;-76
2022/01/04 05:28:59;;;;;;;4.97;4.30;;;7.00;99.90;;;;;;5027136;28;20260;-76
2022/01/04 05:31:25;;;;;;;5.18;4.07;;;7.00;99.90;;;;;;5031355;28;20201;-77
2022/01/04 05:33:50;;;;;;;4.45;4.00;;;6.90;99.90;;;;;;5032145;28;20231;-76
2022/01/04 05:36:16;;;;;;;8.18;4.47;;;6.90;99.90;;;;;;5033730;28;20184;-76
2022/01/04 05:38:43;;;;;;;4.68;4.28;;;6.90;99.90;;;;;;5028825;28;20280;-77
2022/01/04 05:41:08;;;;;;;5.85;4.25;;;7.00;99.90;;;;;;5030396;28;20239;-76
2022/01/04 05:43:34;;;;;;;4.95;4.55;;;6.90;99.90;;;;;;5034190;28;20602;-76
2022/01/04 05:46:00;;;;;;;11.50;5.10;;;7.00;99.90;;;;;;5034456;28;20208;-77
2022/01/04 05:48:25;;;;;;;5.88;5.28;;;7.00;99.90;;;;;;5035965;28;20658;-76
2022/01/04 05:50:51;;;;;;;5.05;4.55;;;7.00;99.90;;;;;;5028651;28;20204;-77
2022/01/04 05:53:17;;;;;;;5.15;4.68;;;7.00;99.90;;;;;;5031968;28;20271;-76
2022/01/04 05:55:42;;;;;;;5.78;4.85;;;7.10;99.90;;;;;;5029804;28;20181;-76
2022/01/04 05:58:08;;;;;;;7.22;5.18;;;7.10;99.90;;;;;;5025424;28;20185;-76
2022/01/04 06:00:34;;;;;;;6.43;5.18;;;7.10;99.90;;;;;;5028619;28;20212;-76
2022/01/04 06:03:01;;;;;;;7.38;5.03;;;7.00;99.90;;;;;;5030758;28;20267;-77
2022/01/04 06:05:27;;;;;;;5.88;4.80;;;7.00;99.90;;;;;;5030479;28;20200;-76
2022/01/04 06:07:53;;;;;;;6.70;5.10;;;6.90;99.90;;;;;;5031957;28;20181;-76
2022/01/04 06:10:19;;;;;;;5.43;4.80;;;6.90;99.90;;;;;;5029632;28;20671;-77
2022/01/04 06:15:14;;;;;;;4.82;4.50;;;6.90;99.90;;;;;;5033273;28;20307;-77
2022/01/04 06:17:43;;;;;;;4.93;4.53;;;7.00;99.90;;;;;;5028789;28;20715;-76
2022/01/04 06:20:14;;;;;;;6.22;4.25;;;7.00;99.90;;;;;;5029964;28;20177;-76
2022/01/04 06:22:40;;;;;;;5.65;4.43;;;7.10;99.90;;;;;;5019398;28;20650;-76
2022/01/04 06:25:09;;;;;;;6.57;4.95;;;7.10;99.90;;;;;;5030914;28;20184;-75
2022/01/04 06:27:35;;;;;;;4.43;4.05;;;7.00;99.90;;;;;;5034682;28;20256;-75
2022/01/04 06:30:02;;;;;;;7.53;4.32;;;7.00;99.90;;;;;;5025563;28;20188;-76
2022/01/04 06:32:27;;;;;;;5.78;4.57;;;7.00;99.90;;;;;;5033548;28;20204;-75
2022/01/04 06:34:53;;;;;;;4.80;4.40;;;6.90;99.90;;;;;;5031640;28;20250;-75
2022/01/04 06:37:19;;;;;;;6.97;4.22;;;7.00;99.90;;;;;;5031622;28;20181;-75
2022/01/04 06:39:45;;;;;;;6.15;4.22;;;7.10;99.90;;;;;;5028267;28;20671;-74
2022/01/04 06:42:11;;;;;;;4.45;4.07;;;7.00;99.90;;;;;;5027486;28;20221;-75
2022/01/04 06:44:38;;;;;;;6.30;4.15;;;7.10;99.90;;;;;;5034268;28;20746;-75
2022/01/04 06:47:05;;;;;;;4.65;4.05;;;7.00;99.90;;;;;;5031553;28;20180;-76
2022/01/04 06:49:31;;;;;;;6.00;4.28;;;7.00;99.90;;;;;;5030392;28;20579;-76
2022/01/04 06:51:56;;;;;;;4.28;3.88;;;7.00;99.90;;;;;;5031741;28;20299;-77
2022/01/04 06:54:23;;;;;;;6.13;4.32;;;7.00;99.90;;;;;;5030507;28;20176;-76
2022/01/04 06:56:49;;;;;;;5.45;4.95;;;7.00;99.90;;;;;;5027545;28;20180;-75
2022/01/04 06:59:16;;;;;;;4.75;4.25;;;6.90;99.90;;;;;;5031110;28;20193;-76
2022/01/04 07:01:41;;;;;;;6.32;4.22;;;6.90;99.90;;;;;;5028485;28;20565;-76
2022/01/04 07:04:08;;;;;;;6.07;4.78;;;6.90;99.90;;;;;;5028065;28;20172;-81
2022/01/04 07:06:34;;;;;;;6.22;4.07;;;6.90;99.90;;;;;;5027002;28;20172;-79
2022/01/04 07:09:00;;;;;;;5.10;4.28;;;7.00;99.90;;;;;;5027283;28;20238;-81
2022/01/04 07:11:26;;;;;;;7.20;4.70;;;7.20;99.90;;;;;;5029817;28;20196;-78
2022/01/04 07:13:52;;;;;;;5.20;4.32;;;7.30;99.90;;;;;;5035312;28;20185;-78
2022/01/04 07:16:18;;;;;;;5.32;3.65;;;7.30;99.90;;;;;;5025702;28;20184;-78
2022/01/04 07:18:49;;;;;;;4.10;3.72;;;7.30;99.90;;;;;;5025288;28;20176;-77
2022/01/04 07:21:17;;;;;;;5.07;3.55;;;7.40;99.90;;;;;;5025911;28;20212;-77
2022/01/04 07:23:44;;;;;;;3.95;3.63;;;7.40;99.90;;;;;;5031469;28;20513;-77
2022/01/04 07:26:11;;;;;;;4.10;3.67;;;7.30;99.90;;;;;;5029197;28;20177;-77
2022/01/04 07:28:39;;;;;;;3.90;3.55;;;7.30;99.90;;;;;;5026292;28;20280;-78
2022/01/04 07:31:04;;;;;;;4.25;3.83;;;7.30;99.90;;;;;;5028842;28;20570;-74
2022/01/04 07:33:30;;;;;;;5.57;2.88;;;7.40;99.90;;;;;;5027569;28;20200;-79
2022/01/04 07:35:56;;;;;;;3.17;2.90;;;7.50;99.90;;;;;;5027106;28;20264;-75
2022/01/04 07:38:21;;;;;;;3.20;3.00;;;7.50;99.90;;;;;;5029726;28;20283;-76
2022/01/04 07:40:47;;;;;;;3.15;2.95;;;7.60;99.90;;;;;;5024121;28;20212;-75
2022/01/04 07:43:14;;;;;;;4.05;3.22;;;7.60;99.90;;;;;;5038931;28;20275;-74
2022/01/04 07:45:40;;;;;;;3.72;2.90;;;7.50;99.90;;;;;;5023356;28;20173;-76
2022/01/04 07:48:10;;;;;;;3.70;3.28;;;7.50;99.90;;;;;;5027495;28;20623;-76
2022/01/04 07:50:42;;;;;;;3.63;3.33;;;7.40;99.90;;;;;;5023455;28;20652;-75
2022/01/04 07:53:08;;;;;;;4.07;3.65;;;7.40;99.90;;;;;;5023817;28;20284;-74
2022/01/04 07:55:35;;;;;;;3.40;3.10;;;7.40;99.90;;;;;;5023636;28;20177;-75
2022/01/04 07:58:00;;;;;;;3.75;2.60;;;7.40;99.90;;;;;;5030274;28;20280;-75
2022/01/04 08:00:27;;;;;;;3.20;3.00;;;7.50;99.90;;;;;;5027406;28;20220;-75
2022/01/04 08:02:54;;;;;;;4.07;2.92;;;7.60;99.90;;;;;;5033256;28;20192;-76
2022/01/04 08:05:20;;;;;;;4.32;2.83;;;7.60;99.90;;;;;;5024049;28;20203;-75
2022/01/04 08:07:46;;;;;;;3.15;2.83;;;7.60;99.90;;;;;;5029473;28;20196;-75
2022/01/04 08:10:12;;;;;;;3.20;2.85;;;7.60;99.90;;;;;;5033848;28;21481;-75
2022/01/04 08:12:39;;;;;;;3.10;2.80;;;7.60;99.90;;;;;;5022711;28;20205;-75
2022/01/04 08:15:06;;;;;;;2.45;2.25;;;7.70;99.90;;;;;;5023422;28;20276;-77
2022/01/04 08:17:31;;;;;;;4.32;3.50;;;7.70;99.90;;;;;;5027905;28;20239;-77
2022/01/04 08:19:58;;;;;;;8.32;5.22;;;7.70;99.90;;;;;;5028549;28;20218;-77
2022/01/04 08:22:24;;;;;;;3.28;2.60;;;7.70;99.90;;;;;;5026190;28;20718;-77
2022/01/04 08:24:50;;;;;;;2.97;2.78;;;7.80;99.90;;;;;;5023566;28;20181;-77
2022/01/04 08:27:15;;;;;;;2.80;2.60;;;7.80;99.90;;;;;;5025421;28;20179;-77
2022/01/04 08:29:41;;;;;;;3.28;2.60;;;7.80;99.90;;;;;;5032410;28;20176;-77
2022/01/04 08:32:07;;;;;;;2.63;2.42;;;7.90;99.90;;;;;;5026905;28;20223;-77
2022/01/04 08:34:33;;;;;;;2.78;2.45;;;8.00;99.90;;;;;;5031992;28;20255;-77
2022/01/04 08:36:59;;;;;;;2.30;2.08;;;8.10;99.90;;;;;;5030859;28;20185;-78
2022/01/04 08:39:26;;;;;;;3.30;2.13;;;8.10;99.90;;;;;;5024468;28;20184;-77
2022/01/04 08:41:55;;;;;;;1.88;1.77;;;8.20;99.90;;;;;;5026588;28;20253;-77
2022/01/04 08:44:23;;;;;;;2.45;2.17;;;8.20;99.90;;;;;;5030696;28;20176;-78
2022/01/04 08:46:50;;;;;;;1.63;1.52;;;8.20;99.90;;;;;;5029152;28;20684;-78
2022/01/04 08:49:16;;;;;;;2.95;1.88;;;8.20;99.90;;;;;;5032780;28;20181;-78
2022/01/04 08:51:42;;;;;;;2.05;1.95;;;8.10;99.90;;;;;;5036087;28;20569;-77
2022/01/04 08:54:08;;;;;;;1.70;1.60;;;8.20;99.90;;;;;;5030178;28;20189;-78
2022/01/04 08:56:34;;;;;;;2.55;2.05;;;8.20;99.90;;;;;;5026739;28;20184;-77
2022/01/04 08:59:00;;;;;;;1.80;1.65;;;8.30;99.90;;;;;;5032276;28;20242;-78
2022/01/04 09:01:26;;;;;;;1.60;1.50;;;8.40;99.90;;;;;;5031988;28;20290;-78
2022/01/04 09:03:51;;;;;;;1.85;1.67;;;8.50;99.90;;;;;;5033817;28;20260;-78
2022/01/04 09:06:19;;;;;;;1.48;1.33;;;8.50;99.90;;;;;;5027722;28;20180;-79
2022/01/04 09:08:45;;;;;;;1.73;1.63;;;8.60;99.90;;;;;;5032497;28;20255;-78
2022/01/04 09:11:11;;;;;;;1.95;1.77;;;8.70;99.90;;;;;;5031936;28;20205;-79
2022/01/04 09:13:41;;;;;;;1.60;1.50;;;8.60;99.90;;;;;;5035297;28;20196;-76
2022/01/04 09:18:43;;;;;;;1.67;1.58;;;8.70;99.90;;;;;;5034525;28;20267;-74
2022/01/04 09:21:10;;;;;;;3.97;1.95;;;8.60;99.90;;;;;;5027434;28;20223;-77
2022/01/04 09:23:36;;;;;;;1.80;1.70;;;8.70;99.90;;;;;;5029764;28;20538;-74
2022/01/04 09:26:02;;;;;;;1.73;1.63;;;8.60;99.90;;;;;;5029293;28;20188;-74
2022/01/04 09:28:28;;;;;;;2.80;1.80;;;8.60;99.90;;;;;;5034622;28;20190;-74
2022/01/04 09:30:55;;;;;;;1.88;1.77;;;8.60;99.90;;;;;;5024288;28;20712;-75
2022/01/04 09:33:21;;;;;;;1.92;1.63;;;8.50;99.90;;;;;;5031099;28;20185;-74
2022/01/04 09:35:49;;;;;;;3.50;2.35;;;8.60;99.90;;;;;;5028198;28;20715;-73
2022/01/04 09:38:16;;;;;;;3.42;2.03;;;8.70;99.90;;;;;;5028911;28;20180;-73
2022/01/04 09:40:42;;;;;;;2.42;2.22;;;8.60;99.90;;;;;;5027387;28;20208;-73
2022/01/04 09:43:08;;;;;;;2.80;2.58;;;8.70;99.90;;;;;;5023116;28;20181;-74
2022/01/04 09:45:34;;;;;;;3.40;3.10;;;8.70;99.90;;;;;;5024817;28;20523;-75
2022/01/04 09:48:00;;;;;;;3.92;3.10;;;8.70;99.90;;;;;;5028382;28;20234;-77
2022/01/04 09:50:26;;;;;;;5.00;3.08;;;8.70;99.90;;;;;;5023053;28;20667;-75
2022/01/04 09:52:54;;;;;;;3.25;2.70;;;8.60;99.90;;;;;;5025113;28;20180;-75
2022/01/04 09:55:20;;;;;;;3.15;2.70;;;8.60;99.90;;;;;;5020586;28;20191;-75
2022/01/04 09:57:47;;;;;;;3.05;2.60;;;8.70;99.90;;;;;;5027091;28;20171;-75
2022/01/04 10:00:15;;;;;;;2.97;2.72;;;8.70;99.90;;;;;;5022716;28;20223;-75
2022/01/04 10:02:46;;;;;;;2.92;2.60;;;8.70;99.90;;;;;;5026669;28;20208;-75
2022/01/04 10:05:22;;;;;;;3.65;2.90;;;8.80;99.90;;;;;;5031262;28;20580;-75
2022/01/04 10:07:58;;;;;;;2.60;2.40;;;8.70;99.90;;;;;;5030034;28;20187;-74
2022/01/04 10:10:24;;;;;;;2.85;2.53;;;8.80;99.90;;;;;;5029717;28;20303;-74
2022/01/04 10:12:59;;;;;;;2.50;2.30;;;9.00;99.90;;;;;;5022636;28;20212;-74
2022/01/04 10:15:45;;;;;;;4.50;2.80;;;9.10;99.90;;;;;;5029373;28;20183;-74
2022/01/04 10:18:14;;;;;;;3.72;2.72;;;9.20;99.90;;;;;;5031356;28;20184;-74
2022/01/04 10:21:10;;;;;;;2.92;2.40;;;9.30;99.90;;;;;;5031254;28;20180;-74
2022/01/04 10:23:56;;;;;;;2.88;2.60;;;9.50;99.90;;;;;;5028386;28;20253;-74
2022/01/04 10:26:37;;;;;;;3.63;2.53;;;9.50;99.90;;;;;;5029233;28;20544;-74
2022/01/04 10:29:19;;;;;;;2.70;2.47;;;9.60;99.90;;;;;;5025867;28;20707;-74
2022/01/04 10:31:45;;;;;;;2.90;2.70;;;9.50;99.90;;;;;;5028894;28;20203;-74
2022/01/04 10:34:11;;;;;;;3.15;2.85;;;9.50;99.90;;;;;;5031883;28;20177;-75
2022/01/04 10:36:40;;;;;;;5.68;4.60;;;9.50;99.90;;;;;;5031600;28;20197;-75
2022/01/04 10:39:09;;;;;;;3.78;3.17;;;9.30;99.90;;;;;;5029323;28;20242;-75
2022/01/04 10:41:35;;;;;;;5.38;2.83;;;9.20;99.90;;;;;;5032398;28;20209;-75
2022/01/04 10:44:07;;;;;;;4.70;3.42;;;9.20;99.90;;;;;;5026556;28;20188;-73
2022/01/04 10:46:41;;;;;;;3.60;2.83;;;9.20;99.90;;;;;;5027160;28;20179;-75
2022/01/04 10:49:18;;;;;;;3.00;2.80;;;9.20;99.90;;;;;;5029889;28;20188;-75
2022/01/04 10:51:45;;;;;;;3.47;3.17;;;9.30;99.90;;;;;;5027567;28;20202;-74
2022/01/04 10:54:18;;;;;;;3.35;3.10;;;9.30;99.90;;;;;;5033600;28;20192;-73
2022/01/04 10:56:44;;;;;;;6.78;3.35;;;9.20;99.90;;;;;;5026753;28;20604;-73
2022/01/04 10:59:11;;;;;;;3.22;2.90;;;9.20;99.90;;;;;;5030095;28;20339;-72
2022/01/04 11:01:46;;;;;;;3.22;2.92;;;9.30;99.90;;;;;;5029019;28;20204;-72
2022/01/04 11:04:15;;;;;;;5.70;3.33;;;9.30;99.90;;;;;;5029275;28;20524;-72
2022/01/04 11:06:42;;;;;;;5.45;2.88;;;9.30;99.90;;;;;;5027346;28;20655;-73
2022/01/04 11:09:09;;;;;;;3.00;2.80;;;9.40;99.90;;;;;;5028163;28;20186;-73
2022/01/04 11:11:35;;;;;;;3.40;3.10;;;9.50;99.90;;;;;;5031196;28;20208;-74
2022/01/04 11:14:02;;;;;;;3.03;2.83;;;9.50;99.90;;;;;;5037374;28;20190;-74
2022/01/04 11:16:30;;;;;;;5.13;3.33;;;9.50;99.90;;;;;;5029192;28;20181;-74
2022/01/04 11:18:57;;;;;;;4.70;2.92;;;9.40;99.90;;;;;;5032413;28;20596;-74
2022/01/04 11:21:32;;;;;;;4.05;3.03;;;9.40;99.90;;;;;;5028804;28;20688;-74
2022/01/04 11:24:01;;;;;;;3.67;3.15;;;9.50;99.90;;;;;;5017433;28;20264;-75
2022/01/04 11:26:27;;;;;;;4.10;3.40;;;9.50;99.90;;;;;;5027467;28;20236;-75
2022/01/04 11:28:54;;;;;;;3.35;3.10;;;9.50;99.90;;;;;;5031498;28;20188;-74
2022/01/04 11:31:38;;;;;;;4.40;3.35;;;9.50;99.90;;;;;;5026834;28;20212;-74
2022/01/04 11:34:12;;;;;;;3.60;2.75;;;9.60;99.90;;;;;;5027984;28;20185;-74
2022/01/04 11:36:41;;;;;;;3.97;3.30;;;9.60;99.90;;;;;;5025314;28;20725;-74
2022/01/04 11:39:41;;;;;;;3.42;2.75;;;9.70;99.90;;;;;;5026975;28;20876;-73
2022/01/04 11:42:31;;;;;;;2.80;2.50;;;9.80;99.90;;;;;;5025700;28;20696;-74
2022/01/04 11:44:58;;;;;;;3.28;3.00;;;10.10;99.90;;;;;;5026530;28;20276;-73
2022/01/04 11:47:28;;;;;;;3.20;2.90;;;10.20;99.90;;;;;;5025511;28;20180;-73
2022/01/04 11:50:24;;;;;;;3.03;2.78;;;10.10;99.90;;;;;;5024913;28;20192;-74
2022/01/04 11:52:50;;;;;;;5.15;3.13;;;10.30;99.90;;;;;;5016119;28;20617;-75
2022/01/04 11:55:33;;;;;;;3.53;3.05;;;10.30;99.90;;;;;;5018139;28;20267;-75
2022/01/04 11:58:02;;;;;;;3.90;2.95;;;10.30;99.90;;;;;;5020653;28;20185;-75
2022/01/04 12:00:37;;;;;;;3.63;2.97;;;10.40;99.90;;;;;;5020001;28;20845;-75
2022/01/04 12:03:10;;;;;;;3.42;3.00;;;10.40;99.90;;;;;;5020933;28;20184;-75
2022/01/04 12:05:39;;;;;;;2.80;2.50;;;10.30;99.90;;;;;;5026412;28;20268;-75
2022/01/04 12:08:24;;;;;;;3.33;3.00;;;10.40;99.90;;;;;;5027360;28;20554;-74
2022/01/04 12:10:52;;;;;;;3.47;2.72;;;10.60;99.90;;;;;;5026852;28;20580;-74
2022/01/04 12:13:22;;;;;;;3.05;2.40;;;10.80;99.90;;;;;;5029071;28;20179;-74
2022/01/04 12:15:54;;;;;;;3.38;2.80;;;11.10;99.90;;;;;;5023229;28;20218;-74
2022/01/04 12:18:22;;;;;;;2.95;2.50;;;11.60;99.90;;;;;;5022232;28;20213;-76
2022/01/04 12:20:49;;;;;;;3.72;2.88;;;12.10;99.90;;;;;;5025623;28;20235;-75
2022/01/04 12:23:30;;;;;;;3.30;3.00;;;12.40;99.90;;;;;;5030886;28;20203;-76
2022/01/04 12:26:15;;;;;;;3.30;3.10;;;12.70;99.90;;;;;;5029617;28;20185;-75
2022/01/04 12:28:59;;;;;;;2.10;2.00;;;12.70;99.90;;;;;;5027480;28;20536;-74
2022/01/04 12:31:26;;;;;;;1.48;1.38;;;12.60;99.90;;;;;;5027729;28;20213;-75
2022/01/04 12:34:23;;;;;;;2.22;1.52;;;12.50;99.90;;;;;;5027617;28;20183;-74
2022/01/04 12:36:49;;;;;;;1.50;1.15;;;12.60;99.90;;;;;;5028728;28;20216;-74
2022/01/04 12:39:18;;;;;;;1.55;1.45;;;12.80;99.90;;;;;;5027081;28;20204;-74
2022/01/04 12:41:46;;;;;;;1.40;1.30;;;12.70;99.90;;;;;;5028929;28;20208;-74
2022/01/04 12:44:20;;;;;;;0.98;0.98;;;12.50;99.90;;;;;;5035980;28;20210;-73
2022/01/04 12:46:47;;;;;;;1.15;1.15;;;12.60;99.90;;;;;;5029043;28;20175;-74
2022/01/04 12:49:18;;;;;;;1.60;1.50;;;12.60;99.90;;;;;;5032161;28;20190;-73
2022/01/04 12:51:50;;;;;;;1.00;0.82;;;12.50;99.90;;;;;;5031174;28;20217;-73
2022/01/04 12:54:17;;;;;;;1.30;1.30;;;12.40;99.90;;;;;;5032606;28;20180;-74
2022/01/04 12:56:51;;;;;;;0.95;0.95;;;12.30;99.90;;;;;;5022818;28;20604;-73
2022/01/04 12:59:22;;;;;;;0.90;0.90;;;12.20;99.90;;;;;;5034787;28;20193;-73
2022/01/04 13:01:49;;;;;;;1.77;1.50;;;12.20;99.90;;;;;;5029067;28;20210;-74
2022/01/04 13:04:23;;;;;;;0.88;0.88;;;12.20;99.90;;;;;;5031735;28;20180;-73
2022/01/04 13:06:50;;;;;;;1.08;1.08;;;12.20;99.90;;;;;;5020317;28;20346;-74
2022/01/04 13:09:26;;;;;;;1.08;1.02;;;12.10;99.90;;;;;;5028190;28;20168;-73